Time;durP1;ratioP1;P1;durP2;ratioP2;P2;SDS_P1;SDS_P2;PMS_P1;PMS_P2;Temp;Humidity;BMP_temperature;BMP_pressure;BME280_temperature;BME280_humidity;BME280_pressure;Samples;Min_cycle;Max_cycle;Signal;HPM_P1;HPM_P2
2021/05/01 00:02:17;;;;;;;34.42;21.73;;;9.20;83.00;;;;;;5040464;28;20578;-74
2021/05/01 00:04:44;;;;;;;36.58;23.08;;;9.10;84.00;;;;;;5042956;28;20088;-73
2021/05/01 00:07:11;;;;;;;33.50;20.88;;;9.20;84.90;;;;;;5036701;28;20130;-72
2021/05/01 00:09:37;;;;;;;33.78;21.65;;;9.30;84.70;;;;;;5037719;28;20069;-73
2021/05/01 00:12:04;;;;;;;35.75;22.27;;;9.30;84.40;;;;;;5041398;28;20049;-73
2021/05/01 00:14:31;;;;;;;36.30;22.02;;;9.30;84.40;;;;;;5041637;28;20049;-73
2021/05/01 00:16:57;;;;;;;39.42;23.70;;;9.30;84.50;;;;;;5044070;28;20140;-74
2021/05/01 00:19:23;;;;;;;38.10;22.55;;;9.20;85.10;;;;;;5041995;28;20523;-74
2021/05/01 00:21:50;;;;;;;36.45;23.13;;;9.20;86.00;;;;;;5043138;28;20044;-73
2021/05/01 00:24:17;;;;;;;35.00;21.88;;;9.10;86.80;;;;;;5042343;28;20057;-74
2021/05/01 00:26:43;;;;;;;36.85;22.27;;;9.10;87.60;;;;;;5040532;28;20512;-74
2021/05/01 00:29:09;;;;;;;36.85;22.58;;;9.20;87.40;;;;;;5040183;28;20049;-74
2021/05/01 00:31:37;;;;;;;35.65;22.27;;;9.20;87.40;;;;;;5042318;28;20053;-73
2021/05/01 00:34:04;;;;;;;39.65;22.63;;;9.20;87.60;;;;;;5041684;28;20515;-75
2021/05/01 00:36:31;;;;;;;35.22;21.55;;;9.10;88.00;;;;;;5036387;28;20073;-73
2021/05/01 00:38:57;;;;;;;35.78;21.95;;;9.20;88.10;;;;;;5041352;28;20057;-73
2021/05/01 00:41:24;;;;;;;35.30;22.13;;;9.40;87.10;;;;;;5041912;28;20132;-72
2021/05/01 00:43:50;;;;;;;37.85;22.42;;;9.20;87.30;;;;;;5038876;28;20081;-73
2021/05/01 00:46:17;;;;;;;38.63;22.10;;;9.20;87.80;;;;;;5041071;28;20057;-73
2021/05/01 00:48:44;;;;;;;40.47;22.58;;;9.40;87.10;;;;;;5039510;28;20064;-73
2021/05/01 00:51:10;;;;;;;38.17;23.45;;;9.50;86.00;;;;;;5043002;28;20095;-73
2021/05/01 00:53:38;;;;;;;38.45;23.52;;;9.40;86.90;;;;;;5040833;28;20057;-73
2021/05/01 00:56:06;;;;;;;42.17;26.25;;;9.20;87.70;;;;;;5041129;28;20064;-72
2021/05/01 00:58:33;;;;;;;45.30;24.92;;;9.20;88.60;;;;;;5037870;28;20076;-73
2021/05/01 01:03:25;;;;;;;45.08;27.05;;;9.10;90.00;;;;;;5041728;28;20131;-73
2021/05/01 01:05:52;;;;;;;42.22;24.05;;;9.10;90.30;;;;;;5042261;28;20423;-74
2021/05/01 01:08:18;;;;;;;39.85;23.20;;;9.00;90.70;;;;;;5040723;28;20044;-73
2021/05/01 01:10:45;;;;;;;40.05;22.65;;;8.90;91.30;;;;;;5043499;28;20061;-73
2021/05/01 01:13:11;;;;;;;40.00;24.05;;;8.80;91.80;;;;;;5037925;28;20606;-73
2021/05/01 01:15:38;;;;;;;40.53;23.40;;;8.60;92.40;;;;;;5043990;28;20049;-74
2021/05/01 01:18:04;;;;;;;36.28;22.65;;;8.60;92.90;;;;;;5038455;28;20602;-74
2021/05/01 01:20:31;;;;;;;41.33;23.15;;;8.60;93.20;;;;;;5040721;28;20122;-73
2021/05/01 01:22:58;;;;;;;42.25;26.15;;;8.80;92.70;;;;;;5040265;28;20487;-73
2021/05/01 01:25:24;;;;;;;43.47;24.88;;;8.80;92.60;;;;;;5040539;28;20144;-73
2021/05/01 01:27:51;;;;;;;40.55;25.25;;;8.60;93.10;;;;;;5040881;28;20053;-74
2021/05/01 01:30:24;;;;;;;39.05;24.90;;;8.50;93.50;;;;;;5041789;28;20140;-73
2021/05/01 01:32:51;;;;;;;40.20;25.40;;;8.50;93.90;;;;;;5041789;28;20060;-73
2021/05/01 01:35:18;;;;;;;43.38;25.55;;;8.40;94.40;;;;;;5042140;28;20064;-74
2021/05/01 01:37:46;;;;;;;40.60;24.20;;;8.40;94.60;;;;;;5041442;28;20616;-73
2021/05/01 01:40:14;;;;;;;44.20;25.75;;;8.50;94.50;;;;;;5041319;28;20549;-74
2021/05/01 01:42:41;;;;;;;47.50;26.38;;;8.60;94.30;;;;;;5040614;28;20136;-73
2021/05/01 01:45:12;;;;;;;43.13;26.02;;;8.50;94.70;;;;;;5041003;28;20458;-73
2021/05/01 01:47:39;;;;;;;45.50;25.88;;;8.40;95.20;;;;;;5042716;28;20067;-74
2021/05/01 01:50:08;;;;;;;41.78;26.52;;;8.50;95.30;;;;;;5041859;28;20095;-74
2021/05/01 01:52:36;;;;;;;43.28;24.42;;;8.50;95.20;;;;;;5061861;28;20049;-73
2021/05/01 01:55:08;;;;;;;42.50;25.63;;;8.50;95.50;;;;;;5042516;28;20072;-73
2021/05/01 01:57:35;;;;;;;46.17;26.77;;;8.50;95.30;;;;;;5039344;28;20045;-73
2021/05/01 02:00:13;;;;;;;42.85;26.05;;;8.50;95.60;;;;;;5041932;28;20080;-73
2021/05/01 02:02:40;;;;;;;43.00;26.27;;;8.50;95.80;;;;;;5039843;28;20432;-73
2021/05/01 02:05:09;;;;;;;45.55;25.88;;;8.50;96.00;;;;;;5041137;28;20053;-74
2021/05/01 02:07:36;;;;;;;45.08;26.88;;;8.40;96.30;;;;;;5040750;28;20129;-74
2021/05/01 02:10:05;;;;;;;46.40;27.58;;;8.60;96.40;;;;;;5040842;28;20272;-74
2021/05/01 02:12:33;;;;;;;46.50;26.13;;;8.70;96.00;;;;;;5040929;28;20045;-74
2021/05/01 02:14:59;;;;;;;43.67;25.88;;;8.60;96.10;;;;;;5042778;28;20119;-73
2021/05/01 02:17:26;;;;;;;44.33;25.58;;;8.70;95.90;;;;;;5040236;28;20057;-74
2021/05/01 02:19:52;;;;;;;47.90;27.08;;;8.80;95.50;;;;;;5041717;28;20187;-74
2021/05/01 02:22:18;;;;;;;45.28;26.85;;;8.60;95.50;;;;;;5041829;28;20126;-74
2021/05/01 02:24:45;;;;;;;50.72;28.20;;;8.40;95.70;;;;;;5040312;28;20076;-74
2021/05/01 02:27:11;;;;;;;51.80;29.23;;;8.40;96.30;;;;;;5040790;28;20478;-74
2021/05/01 02:29:39;;;;;;;48.08;28.55;;;8.30;97.10;;;;;;5040205;28;20095;-73
2021/05/01 02:32:05;;;;;;;47.03;27.73;;;8.20;97.70;;;;;;5039231;28;20049;-74
2021/05/01 02:34:32;;;;;;;46.92;28.00;;;8.20;98.30;;;;;;5040253;28;20053;-74
2021/05/01 02:36:58;;;;;;;47.22;27.75;;;8.20;98.70;;;;;;5042183;28;20151;-74
2021/05/01 02:39:24;;;;;;;52.40;27.98;;;8.10;99.10;;;;;;5047176;28;20262;-74
2021/05/01 02:41:51;;;;;;;51.28;28.02;;;8.10;99.40;;;;;;5043802;28;20597;-72
2021/05/01 02:44:17;;;;;;;47.90;27.20;;;8.10;99.60;;;;;;5044364;28;20049;-73
2021/05/01 02:46:43;;;;;;;44.90;27.23;;;8.00;99.90;;;;;;5036596;28;20048;-72
2021/05/01 02:49:10;;;;;;;53.08;28.65;;;8.10;99.90;;;;;;5037306;28;20102;-72
2021/05/01 02:51:36;;;;;;;46.35;27.67;;;8.00;99.90;;;;;;5047361;28;20053;-73
2021/05/01 02:54:03;;;;;;;47.67;28.50;;;8.00;99.90;;;;;;5047498;28;20044;-73
2021/05/01 02:56:29;;;;;;;53.03;29.02;;;7.90;99.90;;;;;;5045209;28;20052;-73
2021/05/01 02:58:55;;;;;;;46.90;27.88;;;8.00;99.90;;;;;;5047952;28;20049;-72
2021/05/01 03:01:22;;;;;;;49.30;28.05;;;8.00;99.90;;;;;;5041935;28;20081;-72
2021/05/01 03:03:48;;;;;;;51.78;28.15;;;8.30;99.90;;;;;;5044850;28;20053;-72
2021/05/01 03:06:15;;;;;;;50.17;27.73;;;8.20;99.90;;;;;;5044962;28;20437;-73
2021/05/01 03:08:42;;;;;;;45.03;27.42;;;8.00;99.90;;;;;;5045304;28;20111;-72
2021/05/01 03:11:08;;;;;;;47.88;27.23;;;8.00;99.90;;;;;;5047657;28;20080;-73
2021/05/01 03:13:35;;;;;;;51.22;27.92;;;8.30;99.90;;;;;;5047503;28;20098;-72
2021/05/01 03:16:02;;;;;;;51.63;27.90;;;8.30;99.90;;;;;;5040591;28;20055;-72
2021/05/01 03:18:28;;;;;;;48.25;28.30;;;8.30;99.80;;;;;;5046910;28;20045;-72
2021/05/01 03:20:55;;;;;;;50.15;28.38;;;8.20;99.90;;;;;;5049099;28;20060;-73
2021/05/01 03:23:24;;;;;;;47.85;28.88;;;8.10;99.90;;;;;;5055320;28;20103;-73
2021/05/01 03:25:51;;;;;;;53.88;29.38;;;8.00;99.90;;;;;;5048209;28;20045;-72
2021/05/01 03:28:17;;;;;;;47.67;28.70;;;7.80;99.90;;;;;;5058016;28;20369;-72
2021/05/01 03:30:44;;;;;;;51.50;28.88;;;7.70;99.90;;;;;;5050657;28;20691;-72
2021/05/01 03:33:10;;;;;;;54.28;28.98;;;7.70;99.90;;;;;;5045640;28;20393;-72
2021/05/01 03:35:36;;;;;;;53.67;30.70;;;7.70;99.90;;;;;;5048435;28;20053;-72
2021/05/01 03:38:03;;;;;;;53.45;28.38;;;7.80;99.90;;;;;;5051923;28;20099;-72
2021/05/01 03:40:29;;;;;;;49.33;29.25;;;7.80;99.90;;;;;;5044899;28;20057;-72
2021/05/01 03:42:56;;;;;;;53.38;27.15;;;7.80;99.90;;;;;;5049781;28;20075;-73
2021/05/01 03:45:23;;;;;;;44.72;27.75;;;8.00;99.90;;;;;;5054414;28;20076;-72
2021/05/01 03:47:49;;;;;;;48.08;27.20;;;8.10;99.90;;;;;;5052368;28;20137;-73
2021/05/01 03:50:16;;;;;;;48.75;27.73;;;8.20;99.90;;;;;;5049558;28;20041;-73
2021/05/01 03:52:42;;;;;;;48.28;27.42;;;8.20;99.90;;;;;;5050095;28;20076;-72
2021/05/01 03:55:09;;;;;;;49.75;27.63;;;8.00;99.90;;;;;;5044610;28;20069;-72
2021/05/01 03:57:49;;;;;;;47.05;26.60;;;8.00;99.90;;;;;;5041620;28;20116;-72
2021/05/01 04:00:17;;;;;;;47.55;27.00;;;8.30;99.90;;;;;;5051841;28;20106;-72
2021/05/01 04:02:43;;;;;;;46.20;26.33;;;8.30;99.90;;;;;;5047338;28;20488;-72
2021/05/01 04:05:10;;;;;;;49.20;27.33;;;8.10;99.90;;;;;;5050167;28;20068;-72
2021/05/01 04:07:37;;;;;;;48.35;27.88;;;8.00;99.90;;;;;;5065205;28;20057;-73
2021/05/01 04:10:03;;;;;;;47.80;28.10;;;8.10;99.90;;;;;;5048895;28;20604;-72
2021/05/01 04:12:30;;;;;;;51.75;28.95;;;8.10;99.90;;;;;;5048478;28;20503;-73
2021/05/01 04:14:57;;;;;;;50.92;27.50;;;7.90;99.90;;;;;;5050403;28;20064;-73
2021/05/01 04:17:23;;;;;;;49.22;27.63;;;7.90;99.90;;;;;;5047933;28;20049;-73
2021/05/01 04:19:49;;;;;;;47.42;28.15;;;7.90;99.90;;;;;;5046012;28;20045;-72
2021/05/01 04:22:20;;;;;;;53.65;28.95;;;7.90;99.90;;;;;;5048644;28;20048;-73
2021/05/01 04:24:47;;;;;;;53.30;29.33;;;7.80;99.90;;;;;;5044478;28;20154;-73
2021/05/01 04:27:13;;;;;;;52.20;27.70;;;7.70;99.90;;;;;;5050151;28;20118;-72
2021/05/01 04:29:39;;;;;;;56.53;30.00;;;7.80;99.90;;;;;;5050891;28;20052;-73
2021/05/01 04:32:06;;;;;;;53.45;30.48;;;7.80;99.90;;;;;;5040847;28;20045;-73
2021/05/01 04:34:33;;;;;;;50.40;28.90;;;7.80;99.90;;;;;;5048148;28;20483;-73
2021/05/01 04:36:59;;;;;;;55.80;28.92;;;7.80;99.90;;;;;;5048202;28;20468;-73
2021/05/01 04:39:26;;;;;;;50.63;28.10;;;7.80;99.90;;;;;;5048267;28;20118;-73
2021/05/01 04:41:53;;;;;;;44.40;25.95;;;8.00;99.90;;;;;;5048857;28;20169;-73
2021/05/01 04:44:21;;;;;;;55.47;28.65;;;8.10;99.90;;;;;;5046004;28;20081;-72
2021/05/01 04:46:52;;;;;;;53.78;29.17;;;8.30;99.90;;;;;;5045593;28;20110;-73
2021/05/01 04:49:19;;;;;;;53.90;29.27;;;8.40;99.90;;;;;;5046694;28;20049;-73
2021/05/01 04:51:46;;;;;;;49.65;27.20;;;8.20;99.90;;;;;;5047512;28;20055;-73
2021/05/01 04:54:13;;;;;;;53.47;29.23;;;8.10;99.90;;;;;;5048091;28;20125;-73
2021/05/01 04:56:40;;;;;;;53.33;30.05;;;8.20;99.90;;;;;;5047883;28;20052;-73
2021/05/01 04:59:06;;;;;;;47.05;27.60;;;8.20;99.90;;;;;;5049328;28;20136;-74
2021/05/01 05:01:36;;;;;;;43.88;26.30;;;8.20;99.90;;;;;;5041026;28;20056;-73
2021/05/01 05:04:03;;;;;;;49.88;27.58;;;8.00;99.90;;;;;;5048070;28;20049;-73
2021/05/01 05:06:30;;;;;;;46.83;27.73;;;7.90;99.90;;;;;;5047712;28;20056;-73
2021/05/01 05:08:59;;;;;;;48.55;27.55;;;7.80;99.90;;;;;;5046888;28;20046;-72
2021/05/01 05:11:26;;;;;;;49.38;28.13;;;7.80;99.90;;;;;;5048679;28;20134;-72
2021/05/01 05:13:52;;;;;;;52.80;29.40;;;7.90;99.90;;;;;;5046396;28;20128;-72
2021/05/01 05:16:20;;;;;;;48.45;29.05;;;7.90;99.90;;;;;;5047384;28;20048;-73
2021/05/01 05:18:46;;;;;;;48.47;28.20;;;7.90;99.90;;;;;;5049315;28;20122;-73
2021/05/01 05:21:13;;;;;;;51.60;28.17;;;8.20;99.90;;;;;;5044503;28;20080;-73
2021/05/01 05:23:39;;;;;;;50.03;29.40;;;8.10;99.90;;;;;;5048135;28;20720;-73
2021/05/01 05:26:05;;;;;;;48.78;27.15;;;8.10;99.90;;;;;;5047004;28;20048;-73
2021/05/01 05:28:32;;;;;;;49.28;28.58;;;8.20;99.90;;;;;;5047370;28;20057;-74
2021/05/01 05:30:58;;;;;;;52.75;28.92;;;8.20;99.90;;;;;;5042960;28;20057;-73
2021/05/01 05:33:25;;;;;;;55.75;30.40;;;8.10;99.90;;;;;;5045311;28;20059;-73
2021/05/01 05:35:51;;;;;;;56.00;29.67;;;8.10;99.90;;;;;;5047374;28;20041;-72
2021/05/01 05:38:18;;;;;;;52.05;29.05;;;8.50;99.90;;;;;;5044058;28;20048;-72
2021/05/01 05:40:44;;;;;;;55.00;27.67;;;9.00;99.90;;;;;;5041729;28;20131;-73
2021/05/01 05:43:11;;;;;;;49.13;27.58;;;9.00;99.90;;;;;;5045338;28;20080;-72
2021/05/01 05:45:40;;;;;;;49.97;27.08;;;9.10;99.90;;;;;;5048338;28;20055;-72
2021/05/01 05:48:07;;;;;;;46.63;27.30;;;9.20;99.90;;;;;;5045045;28;20396;-73
2021/05/01 05:50:33;;;;;;;54.13;27.92;;;9.20;99.90;;;;;;5046912;28;20071;-73
2021/05/01 05:53:00;;;;;;;47.50;26.77;;;9.10;99.90;;;;;;5064039;28;20064;-72
2021/05/01 05:55:27;;;;;;;46.60;27.75;;;9.30;99.90;;;;;;5048119;28;20112;-73
2021/05/01 05:57:56;;;;;;;48.15;26.77;;;9.30;99.90;;;;;;5046014;28;20400;-74
2021/05/01 06:00:24;;;;;;;47.45;28.05;;;9.50;99.90;;;;;;5047991;28;20122;-73
2021/05/01 06:03:00;;;;;;;46.78;26.00;;;9.50;99.90;;;;;;5042969;28;20518;-73
2021/05/01 06:05:37;;;;;;;45.50;25.95;;;10.10;97.90;;;;;;5048395;28;20045;-73
2021/05/01 06:08:05;;;;;;;45.80;24.92;;;10.50;96.30;;;;;;5046897;28;20057;-72
2021/05/01 06:10:33;;;;;;;41.72;24.30;;;11.10;94.40;;;;;;5046405;28;20095;-72
2021/05/01 06:13:02;;;;;;;42.92;24.70;;;12.00;91.30;;;;;;5046778;28;20194;-72
2021/05/01 06:15:29;;;;;;;44.67;25.35;;;12.50;87.10;;;;;;5047813;28;20120;-73
2021/05/01 06:18:01;;;;;;;42.67;24.65;;;12.70;83.80;;;;;;5046757;28;20041;-72
2021/05/01 06:20:29;;;;;;;43.67;26.15;;;12.50;82.80;;;;;;5048068;28;20048;-74
2021/05/01 06:22:56;;;;;;;43.70;25.05;;;11.70;84.70;;;;;;5046269;28;20183;-73
2021/05/01 06:25:22;;;;;;;41.17;25.55;;;12.20;83.50;;;;;;5057240;28;20346;-73
2021/05/01 06:27:53;;;;;;;44.13;25.67;;;11.40;84.90;;;;;;5046439;28;20045;-73
2021/05/01 06:30:20;;;;;;;;;;;10.80;87.20;;;;;;5050215;28;20476;-73
2021/05/01 06:32:48;;;;;;;42.28;25.10;;;10.20;90.40;;;;;;5045498;28;19951;-73
2021/05/01 06:35:15;;;;;;;43.08;25.10;;;10.20;91.30;;;;;;5045979;28;20040;-73
2021/05/01 06:37:41;;;;;;;37.85;23.60;;;10.10;91.60;;;;;;5053007;28;20408;-73
2021/05/01 06:40:12;;;;;;;43.92;24.17;;;10.60;90.80;;;;;;5042006;28;20084;-74
2021/05/01 06:42:43;;;;;;;;;;;10.40;90.40;;;;;;5047717;28;20136;-74
2021/05/01 06:45:16;;;;;;;39.00;23.52;;;10.80;90.50;;;;;;5045102;28;19920;-73
2021/05/01 06:47:54;;;;;;;41.83;24.02;;;10.80;89.20;;;;;;5042677;28;20130;-73
2021/05/01 06:50:23;;;;;;;45.65;23.35;;;10.80;89.20;;;;;;5048980;28;20077;-75
2021/05/01 06:52:50;;;;;;;39.50;23.58;;;11.10;87.40;;;;;;5048951;28;20049;-74
2021/05/01 06:55:19;;;;;;;40.35;22.27;;;11.00;86.50;;;;;;5061026;28;20138;-74
2021/05/01 06:57:48;;;;;;;38.08;21.63;;;10.80;87.90;;;;;;5051130;28;20096;-74
2021/05/01 07:00:16;;;;;;;36.45;22.38;;;11.00;86.40;;;;;;5050973;28;20490;-73
2021/05/01 07:02:45;;;;;;;35.25;21.70;;;10.50;87.20;;;;;;5047147;28;20463;-73
2021/05/01 07:05:16;;;;;;;36.92;21.92;;;10.80;87.20;;;;;;5041861;28;20111;-72
2021/05/01 07:07:44;;;;;;;37.08;20.27;;;10.60;86.70;;;;;;5050990;28;20099;-72
2021/05/01 07:10:13;;;;;;;36.38;20.70;;;10.70;87.10;;;;;;5047937;28;20076;-74
2021/05/01 07:12:41;;;;;;;36.42;22.40;;;11.00;86.30;;;;;;5048022;28;20127;-74
2021/05/01 07:15:12;;;;;;;35.25;21.15;;;11.20;84.90;;;;;;5051381;28;20501;-72
2021/05/01 07:17:42;;;;;;;34.03;19.95;;;11.30;84.00;;;;;;5046994;28;20056;-74
2021/05/01 07:20:10;;;;;;;33.28;20.65;;;11.30;83.80;;;;;;5051035;28;20503;-73
2021/05/01 07:22:38;;;;;;;33.45;20.48;;;11.20;83.10;;;;;;5050105;28;20053;-73
2021/05/01 07:25:06;;;;;;;33.42;19.70;;;11.30;83.10;;;;;;5048670;28;20113;-73
2021/05/01 07:27:35;;;;;;;30.38;19.30;;;11.20;82.10;;;;;;5060413;28;20110;-74
2021/05/01 07:30:05;;;;;;;34.53;20.23;;;11.10;81.30;;;;;;5049736;28;20044;-74
2021/05/01 07:32:35;;;;;;;32.53;19.75;;;10.90;82.10;;;;;;5047673;28;20739;-72
2021/05/01 07:35:07;;;;;;;28.92;18.20;;;11.20;81.60;;;;;;5041147;28;20112;-73
2021/05/01 07:37:38;;;;;;;31.13;18.55;;;11.20;79.40;;;;;;5050970;28;20344;-73
2021/05/01 07:40:10;;;;;;;31.52;19.27;;;11.10;79.70;;;;;;5050058;28;20408;-72
2021/05/01 07:42:43;;;;;;;30.15;18.83;;;10.90;81.10;;;;;;5061547;28;20510;-73
2021/05/01 07:45:11;;;;;;;29.50;19.25;;;11.40;79.50;;;;;;5066155;28;20110;-73
2021/05/01 07:47:42;;;;;;;26.05;16.85;;;11.80;77.30;;;;;;5049292;28;20468;-73
2021/05/01 07:50:08;;;;;;;31.45;18.98;;;11.90;75.60;;;;;;5048837;28;20435;-73
2021/05/01 07:52:37;;;;;;;34.70;20.25;;;12.00;75.10;;;;;;5046300;28;20435;-74
2021/05/01 07:55:04;;;;;;;32.80;19.73;;;12.00;74.70;;;;;;5046063;28;20052;-72
2021/05/01 07:57:30;;;;;;;30.65;18.67;;;12.10;74.00;;;;;;5047905;28;20045;-73
2021/05/01 07:59:56;;;;;;;29.00;19.13;;;12.20;73.40;;;;;;5047878;28;20057;-72
2021/05/01 08:02:23;;;;;;;30.90;18.27;;;12.10;74.00;;;;;;5059736;28;20056;-73
2021/05/01 08:05:10;;;;;;;37.83;20.58;;;12.20;73.50;;;;;;5050558;28;20061;-72
2021/05/01 08:07:37;;;;;;;36.45;21.70;;;12.10;73.40;;;;;;5051656;28;20061;-73
2021/05/01 08:10:05;;;;;;;34.95;20.98;;;11.90;73.60;;;;;;5048420;28;20131;-73
2021/05/01 08:12:32;;;;;;;34.58;20.02;;;12.10;74.10;;;;;;5039353;28;20046;-73
2021/05/01 08:15:03;;;;;;;33.22;20.15;;;12.10;73.90;;;;;;5049365;28;20055;-73
2021/05/01 08:17:29;;;;;;;32.67;20.15;;;12.00;73.50;;;;;;5049182;28;20033;-73
2021/05/01 08:19:56;;;;;;;33.78;20.73;;;12.20;73.50;;;;;;5048089;28;20067;-73
2021/05/01 08:22:22;;;;;;;36.78;21.00;;;12.20;72.40;;;;;;5047707;28;20057;-72
2021/05/01 08:24:49;;;;;;;29.23;19.17;;;12.00;73.00;;;;;;5048958;28;20542;-74
2021/05/01 08:27:16;;;;;;;33.35;19.65;;;12.30;71.90;;;;;;5046400;28;20053;-71
2021/05/01 08:29:42;;;;;;;35.67;19.33;;;12.10;72.40;;;;;;5052572;28;20079;-72
2021/05/01 08:32:09;;;;;;;34.35;20.38;;;11.80;72.30;;;;;;5048003;28;20080;-73
2021/05/01 08:34:35;;;;;;;33.50;21.15;;;12.00;72.30;;;;;;5046830;28;20114;-76
2021/05/01 08:37:03;;;;;;;32.80;20.52;;;12.20;71.80;;;;;;5048472;28;20077;-74
2021/05/01 08:39:30;;;;;;;36.20;20.90;;;12.60;70.80;;;;;;5048203;28;20090;-72
2021/05/01 08:41:57;;;;;;;38.92;22.35;;;12.80;69.60;;;;;;5049643;28;20098;-72
2021/05/01 08:44:24;;;;;;;31.88;21.77;;;12.60;69.80;;;;;;5046601;28;20060;-73
2021/05/01 08:46:50;;;;;;;37.30;22.33;;;12.50;70.40;;;;;;5048326;28;20053;-73
2021/05/01 08:49:17;;;;;;;37.08;21.63;;;12.40;70.30;;;;;;5047069;28;20075;-72
2021/05/01 08:51:44;;;;;;;36.03;21.58;;;12.50;70.20;;;;;;5049989;28;20510;-74
2021/05/01 08:54:15;;;;;;;36.90;22.10;;;12.70;70.20;;;;;;5048582;28;20045;-73
2021/05/01 08:56:42;;;;;;;38.92;22.70;;;12.70;69.20;;;;;;5054738;28;20053;-73
2021/05/01 08:59:09;;;;;;;40.38;22.77;;;12.50;70.10;;;;;;5047528;28;20067;-78
2021/05/01 09:01:37;;;;;;;38.80;22.80;;;12.50;70.50;;;;;;5044786;28;20450;-79
2021/05/01 09:04:05;;;;;;;33.95;21.45;;;12.60;69.70;;;;;;5046975;28;20075;-73
2021/05/01 09:06:33;;;;;;;34.45;21.73;;;12.30;70.40;;;;;;5048027;28;20045;-72
2021/05/01 09:09:03;;;;;;;37.78;21.67;;;12.40;69.60;;;;;;5045373;28;20085;-70
2021/05/01 09:11:33;;;;;;;36.65;22.15;;;12.10;69.60;;;;;;5043885;28;20073;-73
2021/05/01 09:14:14;;;;;;;34.33;20.35;;;12.30;69.70;;;;;;5042678;28;20069;-81
2021/05/01 09:16:42;;;;;;;31.88;20.48;;;12.60;68.60;;;;;;5042129;28;20049;-80
2021/05/01 09:19:09;;;;;;;36.92;22.02;;;12.70;67.90;;;;;;5035777;28;20045;-80
2021/05/01 09:21:35;;;;;;;35.47;22.05;;;12.60;67.70;;;;;;5038729;28;20052;-80
2021/05/01 09:24:03;;;;;;;32.28;21.20;;;12.60;67.80;;;;;;5037414;28;20507;-80
2021/05/01 09:26:41;;;;;;;33.20;21.85;;;12.50;67.80;;;;;;5036975;28;20440;-80
2021/05/01 09:29:26;;;;;;;44.47;21.88;;;12.50;67.60;;;;;;5038684;28;20063;-77
2021/05/01 09:31:52;;;;;;;41.25;23.75;;;12.50;68.20;;;;;;5032699;28;20126;-76
2021/05/01 09:34:21;;;;;;;40.47;24.38;;;12.60;68.80;;;;;;5035192;28;20455;-76
2021/05/01 09:36:49;;;;;;;38.60;23.52;;;12.50;68.70;;;;;;5037301;28;20055;-74
2021/05/01 09:39:16;;;;;;;38.75;23.02;;;12.60;69.10;;;;;;5054017;28;20057;-84
2021/05/01 09:41:48;;;;;;;39.53;23.50;;;12.80;68.50;;;;;;5036566;28;20080;-84
2021/05/01 09:44:18;;;;;;;40.08;25.17;;;12.80;68.20;;;;;;5036507;28;20060;-84
2021/05/01 09:46:51;;;;;;;45.22;25.35;;;13.00;67.70;;;;;;5038520;28;20068;-84
2021/05/01 09:49:29;;;;;;;40.28;25.27;;;12.90;67.50;;;;;;5037275;28;20487;-84
2021/05/01 09:52:17;;;;;;;46.50;26.58;;;12.70;67.90;;;;;;5036358;28;20045;-85
2021/05/01 09:54:45;;;;;;;49.97;27.15;;;12.60;67.30;;;;;;5039700;28;20127;-83
2021/05/01 09:57:16;;;;;;;51.50;26.98;;;12.60;67.60;;;;;;5040548;28;20049;-84
2021/05/01 09:59:45;;;;;;;45.78;28.15;;;12.50;68.30;;;;;;5039738;28;20080;-86
2021/05/01 10:02:14;;;;;;;48.40;28.63;;;12.40;68.60;;;;;;5043254;28;20049;-85
2021/05/01 10:05:02;;;;;;;46.88;27.73;;;12.50;68.20;;;;;;5039934;28;20052;-85
2021/05/01 10:07:30;;;;;;;46.53;28.65;;;12.50;68.70;;;;;;5025459;28;20735;-85
2021/05/01 10:10:00;;;;;;;47.00;27.83;;;12.50;68.50;;;;;;5042744;28;20053;-85
2021/05/01 10:12:37;;;;;;;48.13;28.75;;;12.60;68.80;;;;;;5043260;28;20152;-85
2021/05/01 10:15:17;;;;;;;44.90;27.60;;;12.40;68.10;;;;;;5040346;28;20052;-85
2021/05/01 10:17:51;;;;;;;;;;;12.50;68.90;;;;;;5039413;28;20053;-83
2021/05/01 10:20:20;;;;;;;46.85;28.35;;;12.40;70.10;;;;;;5040911;28;19932;-86
2021/05/01 10:22:49;;;;;;;49.60;29.58;;;12.50;70.00;;;;;;5041447;28;20060;-84
2021/05/01 10:25:25;;;;;;;44.78;27.27;;;12.60;70.30;;;;;;5045357;28;20053;-85
2021/05/01 10:28:02;;;;;;;43.85;26.13;;;12.60;69.40;;;;;;5040896;28;20045;-82
2021/05/01 10:30:47;;;;;;;43.45;25.73;;;12.60;68.90;;;;;;5041386;28;20053;-82
2021/05/01 10:33:33;;;;;;;41.15;24.10;;;13.00;67.10;;;;;;5044975;28;20056;-83
2021/05/01 10:36:23;;;;;;;36.35;22.35;;;13.20;64.90;;;;;;5042674;28;20935;-83
2021/05/01 10:39:05;;;;;;;34.63;21.20;;;13.40;63.40;;;;;;5041572;28;20537;-82
2021/05/01 10:41:32;;;;;;;33.05;21.55;;;13.50;62.50;;;;;;5024618;28;20144;-83
2021/05/01 10:44:02;;;;;;;30.38;19.80;;;13.50;61.10;;;;;;5041755;28;20057;-85
2021/05/01 10:46:39;;;;;;;36.75;20.63;;;13.30;61.00;;;;;;5044772;28;20646;-81
2021/05/01 10:49:10;;;;;;;32.92;19.13;;;13.50;61.40;;;;;;5042351;28;20061;-81
2021/05/01 10:51:39;;;;;;;27.65;18.80;;;13.80;59.90;;;;;;5059674;28;20385;-80
2021/05/01 10:54:06;;;;;;;32.88;19.52;;;13.80;59.10;;;;;;5044112;28;20092;-81
2021/05/01 10:56:33;;;;;;;30.95;18.95;;;13.70;59.00;;;;;;5039922;28;20045;-83
2021/05/01 10:59:16;;;;;;;30.67;19.08;;;13.80;58.80;;;;;;5042761;28;20202;-81
2021/05/01 11:01:49;;;;;;;25.90;18.02;;;13.90;58.20;;;;;;5041467;28;20530;-82
2021/05/01 11:04:21;;;;;;;27.08;17.38;;;13.90;57.60;;;;;;5040269;28;20087;-83
2021/05/01 11:06:50;;;;;;;26.27;15.02;;;13.90;57.20;;;;;;5044868;28;20514;-83
2021/05/01 11:09:39;;;;;;;21.75;15.02;;;13.90;57.00;;;;;;5055138;28;20058;-81
2021/05/01 11:12:10;;;;;;;30.52;16.23;;;14.10;56.10;;;;;;5038683;28;20057;-81
2021/05/01 11:14:45;;;;;;;26.55;15.90;;;14.10;55.90;;;;;;5042363;28;20134;-80
2021/05/01 11:17:22;;;;;;;30.30;15.75;;;14.10;56.70;;;;;;5040931;28;20049;-81
2021/05/01 11:19:57;;;;;;;19.38;11.70;;;14.30;54.90;;;;;;5043520;28;20065;-82
2021/05/01 11:22:26;;;;;;;17.70;12.25;;;14.10;54.60;;;;;;5040897;28;20049;-79
2021/05/01 11:24:55;;;;;;;18.77;12.38;;;14.30;55.20;;;;;;5040038;28;20076;-80
2021/05/01 11:27:22;;;;;;;17.35;11.18;;;14.30;54.50;;;;;;5041764;28;20059;-81
2021/05/01 11:29:51;;;;;;;17.65;11.07;;;14.30;54.40;;;;;;5040050;28;20048;-79
2021/05/01 11:32:18;;;;;;;18.30;10.38;;;14.20;54.10;;;;;;5024017;28;20044;-81
2021/05/01 11:34:52;;;;;;;16.58;10.30;;;14.40;53.90;;;;;;5038082;28;20151;-79
2021/05/01 11:37:25;;;;;;;16.10;10.13;;;14.90;54.60;;;;;;5038223;28;20049;-80
2021/05/01 11:39:53;;;;;;;20.08;10.07;;;15.00;52.80;;;;;;5040960;28;20052;-81
2021/05/01 11:42:24;;;;;;;18.67;9.63;;;14.90;52.00;;;;;;5058938;28;20049;-81
2021/05/01 11:44:51;;;;;;;14.23;9.13;;;14.90;52.40;;;;;;5037957;28;20389;-80
2021/05/01 11:47:25;;;;;;;14.60;10.00;;;15.20;52.30;;;;;;5038708;28;20160;-80
2021/05/01 11:49:56;;;;;;;15.52;9.60;;;15.00;51.70;;;;;;5040033;28;20044;-80
2021/05/01 11:52:53;;;;;;;12.02;8.35;;;15.10;52.00;;;;;;5023221;28;20157;-80
2021/05/01 11:55:31;;;;;;;14.90;8.43;;;15.20;51.50;;;;;;5039449;28;20065;-81
2021/05/01 11:58:03;;;;;;;15.32;10.10;;;15.20;50.90;;;;;;5038153;28;20045;-81
2021/05/01 12:00:38;;;;;;;16.40;9.70;;;15.00;51.60;;;;;;5056023;28;20056;-79
2021/05/01 12:03:22;;;;;;;17.10;10.45;;;14.80;52.20;;;;;;5038932;28;20652;-80
2021/05/01 12:06:21;;;;;;;16.83;10.27;;;15.00;51.90;;;;;;5042371;28;20060;-81
2021/05/01 12:08:49;;;;;;;15.80;9.50;;;15.40;51.90;;;;;;5037270;28;20057;-81
2021/05/01 12:11:19;;;;;;;17.70;11.57;;;15.70;50.70;;;;;;5039993;28;20063;-80
2021/05/01 12:13:50;;;;;;;15.55;11.23;;;15.40;51.40;;;;;;5039406;28;20494;-81
2021/05/01 12:16:23;;;;;;;18.75;11.70;;;15.20;51.50;;;;;;5036798;28;20057;-80
2021/05/01 12:18:53;;;;;;;18.35;11.70;;;15.60;51.50;;;;;;5043512;28;20180;-80
2021/05/01 12:21:42;;;;;;;16.83;10.85;;;16.10;51.20;;;;;;5046461;28;20492;-80
2021/05/01 12:24:32;;;;;;;19.92;12.27;;;16.10;50.40;;;;;;5046260;28;20389;-82
2021/05/01 12:27:00;;;;;;;17.77;11.13;;;16.30;50.90;;;;;;5049020;28;20538;-83
2021/05/01 12:29:33;;;;;;;20.98;13.40;;;16.50;50.30;;;;;;5047829;28;20053;-82
2021/05/01 12:32:06;;;;;;;18.48;12.27;;;16.20;51.30;;;;;;5031245;28;20095;-82
2021/05/01 12:34:57;;;;;;;21.80;13.90;;;16.60;51.10;;;;;;5048788;28;20131;-80
2021/05/01 12:37:27;;;;;;;25.90;13.00;;;16.70;50.80;;;;;;5047096;28;20049;-82
2021/05/01 12:40:03;;;;;;;20.43;12.50;;;17.00;50.70;;;;;;5046210;28;20049;-81
2021/05/01 12:42:34;;;;;;;20.23;12.20;;;17.40;49.80;;;;;;5046142;28;20728;-83
2021/05/01 12:45:29;;;;;;;19.42;11.90;;;17.30;48.60;;;;;;5039513;28;20049;-80
2021/05/01 12:47:56;;;;;;;18.08;10.15;;;17.40;48.30;;;;;;5042516;28;20053;-80